Dragonfly — WDI2946 — position and weather

sailwx.info

Track history (hours):
 
Tides and Currents Weather Stations Pressure Air Temp Water Temp Dewpoint Dewpoint Depression Visibility Wind Speed Wind Dir Waves Ship Positions

Dragonfly

Owner: Hawkins, Lennie D, Scappoose, OR. More information available from US FCC via Universal Licensing System and Coast Guard Vessel Documentation Center.

Last reported at 2017-Dec-18 20:29 UTC. Time now 2017-Dec-18 20:30 UTC.
Position N 24°09' W 110°20'.

Length 13 m.

Type: Sailing vessel. MMSI: 367683380.

Date/timePositionNaut miles runAvg speedWind from/ knotsBaromVisibWave heightAir tempDewpointWater temp
2017-Dec-18 20:29N 24°09' W 110°20'0 0.0
2017-Dec-18 19:59N 24°09' W 110°20'0 0.0
2017-Dec-18 19:29N 24°09' W 110°20'0 0.0
2017-Dec-18 18:58N 24°09' W 110°20'0 0.0
2017-Dec-18 18:29N 24°09' W 110°20'0 0.0
2017-Dec-18 17:56N 24°09' W 110°20'0 0.0
2017-Dec-18 17:29N 24°09' W 110°20'0 0.0
2017-Dec-18 16:56N 24°09' W 110°20'0 0.0
2017-Dec-18 16:26N 24°09' W 110°20'0 0.0
2017-Dec-18 15:59N 24°09' W 110°20'0 0.0
2017-Dec-18 15:29N 24°09' W 110°20'0 0.0
2017-Dec-18 14:59N 24°09' W 110°20'0 0.0
2017-Dec-18 14:29N 24°09' W 110°20'0 0.0
2017-Dec-18 13:59N 24°09' W 110°20'0 0.0
2017-Dec-18 13:29N 24°09' W 110°20'0 0.0
2017-Dec-18 12:59N 24°09' W 110°20'0 0.0
2017-Dec-18 12:29N 24°09' W 110°20'0 0.0
2017-Dec-18 11:59N 24°09' W 110°20'0 0.0
2017-Dec-18 11:29N 24°09' W 110°20'0 0.0
2017-Dec-18 10:59N 24°09' W 110°20'0 0.0
2017-Dec-18 10:29N 24°09' W 110°20'0 0.0
2017-Dec-18 09:59N 24°09' W 110°20'0 0.0
2017-Dec-18 09:29N 24°09' W 110°20'0 0.0
2017-Dec-18 08:59N 24°09' W 110°20'0 0.0
2017-Dec-18 08:29N 24°09' W 110°20'0 0.0
2017-Dec-18 07:59N 24°09' W 110°20'0 0.1
2017-Dec-18 07:29N 24°09' W 110°19'0 0.1
2017-Dec-18 06:59N 24°09' W 110°20'0 0.0
2017-Dec-18 06:29N 24°09' W 110°20'0 0.0
2017-Dec-18 05:59N 24°09' W 110°20'0 0.0
2017-Dec-18 05:29N 24°09' W 110°20'0 0.0
2017-Dec-18 04:56N 24°09' W 110°20'0 0.0
2017-Dec-18 04:29N 24°09' W 110°20'0 0.0
2017-Dec-18 03:59N 24°09' W 110°20'0 0.0
2017-Dec-18 03:29N 24°09' W 110°20'0 0.0
2017-Dec-18 02:59N 24°09' W 110°20'0 0.0
2017-Dec-18 02:29N 24°09' W 110°20'0 0.0
2017-Dec-18 01:59N 24°09' W 110°20'0 0.0
2017-Dec-18 01:29N 24°09' W 110°20'0 0.0
2017-Dec-18 00:59N 24°09' W 110°20'0 0.0
2017-Dec-18 00:29N 24°09' W 110°20'0 0.0
2017-Dec-17 23:59N 24°09' W 110°20'0 0.0
2017-Dec-17 23:29N 24°09' W 110°20'0 0.0
2017-Dec-17 22:59N 24°09' W 110°20'0 0.0
2017-Dec-17 22:29N 24°09' W 110°20'0 0.0
2017-Dec-17 21:59N 24°09' W 110°20'0 0.0
2017-Dec-17 21:29N 24°09' W 110°20'0 0.0
2017-Dec-17 20:59N 24°09' W 110°20'1 1.9
2017-Dec-17 20:29N 24°10' W 110°19'2 3.9
2017-Dec-17 20:00N 24°12' W 110°18'2 4.6
2017-Dec-17 19:30N 24°14' W 110°20'  
2017-Dec-13 16:50N 24°16' W 110°21'2 6.2
2017-Dec-13 16:29N 24°14' W 110°20'3 5.5
2017-Dec-13 16:00N 24°12' W 110°18'3 4.9
2017-Dec-13 15:29N 24°09' W 110°19'0 0.1
2017-Dec-13 14:59N 24°09' W 110°20'0 0.1
2017-Dec-13 14:29N 24°09' W 110°19'0 0.0
2017-Dec-13 13:59N 24°09' W 110°19'0 0.0
2017-Dec-13 13:29N 24°09' W 110°19'0 0.0
2017-Dec-13 12:59N 24°09' W 110°19'0 0.0
2017-Dec-13 12:29N 24°09' W 110°19'0 0.0
2017-Dec-13 11:59N 24°09' W 110°19'0 0.0
2017-Dec-13 11:29N 24°09' W 110°19'0 0.0
2017-Dec-13 10:59N 24°09' W 110°19'0 0.1
2017-Dec-13 10:29N 24°09' W 110°20'0 0.1
2017-Dec-13 09:59N 24°09' W 110°19'0 0.0
2017-Dec-13 09:29N 24°09' W 110°19'0 0.0
2017-Dec-13 08:59N 24°09' W 110°19'0 0.0
2017-Dec-13 08:29N 24°09' W 110°19'0 0.0
2017-Dec-13 07:59N 24°09' W 110°19'0 0.0
2017-Dec-13 07:29N 24°09' W 110°19'0 0.0
2017-Dec-13 06:59N 24°09' W 110°19'0 0.0
2017-Dec-13 06:29N 24°09' W 110°19'0 0.0
2017-Dec-13 05:59N 24°09' W 110°19'0 0.0
2017-Dec-13 05:29N 24°09' W 110°19'0 0.0
2017-Dec-13 04:59N 24°09' W 110°19'0 0.0
2017-Dec-13 04:29N 24°09' W 110°19'0 0.0
2017-Dec-13 03:59N 24°09' W 110°19'0 0.0
2017-Dec-13 03:29N 24°09' W 110°19'0 0.0
2017-Dec-13 02:59N 24°09' W 110°19'0 0.1
2017-Dec-13 02:29N 24°09' W 110°20'0 0.1
2017-Dec-13 01:59N 24°09' W 110°19'0 0.1
2017-Dec-13 01:29N 24°09' W 110°20'0 0.1
2017-Dec-13 00:56N 24°09' W 110°19'0 0.0
2017-Dec-13 00:30N 24°09' W 110°19'0 0.0
2017-Dec-12 23:59N 24°09' W 110°19'0 0.0
2017-Dec-12 23:29N 24°09' W 110°19'0 0.0
2017-Dec-12 22:59N 24°09' W 110°19'0 0.0
2017-Dec-12 22:26N 24°09' W 110°19'0 0.0
2017-Dec-12 21:59N 24°09' W 110°19'0 0.0
2017-Dec-12 21:30N 24°09' W 110°19'0 0.0
2017-Dec-12 20:57N 24°09' W 110°19'0 0.0
2017-Dec-12 20:29N 24°09' W 110°19'0 0.0
2017-Dec-12 19:59N 24°09' W 110°19'0 0.0
2017-Dec-12 19:27N 24°09' W 110°19'0 0.0
2017-Dec-12 18:59N 24°09' W 110°19'0 0.0
2017-Dec-12 18:26N 24°09' W 110°19'0 0.0
2017-Dec-12 17:57N 24°09' W 110°19'0 0.0
2017-Dec-12 17:26N 24°09' W 110°19'0 0.0
2017-Dec-12 16:59N 24°09' W 110°19'0 0.0
2017-Dec-12 16:29N 24°09' W 110°19'0 0.0
2017-Dec-12 15:50N 24°09' W 110°19'0 0.0
2017-Dec-12 15:29N 24°09' W 110°19'0 0.0
2017-Dec-12 14:59N 24°09' W 110°19'0 0.0
2017-Dec-12 14:29N 24°09' W 110°19'0 0.0
2017-Dec-12 13:59N 24°09' W 110°19'0 0.0
2017-Dec-12 13:29N 24°09' W 110°19'0 0.0
2017-Dec-12 12:59N 24°09' W 110°19'0 0.0
2017-Dec-12 12:29N 24°09' W 110°19'0 0.0
2017-Dec-12 11:59N 24°09' W 110°19'0 0.0
2017-Dec-12 11:29N 24°09' W 110°19'0 0.0
2017-Dec-12 10:59N 24°09' W 110°19'0 0.0
2017-Dec-12 10:26N 24°09' W 110°19'0 0.0
2017-Dec-12 09:59N 24°09' W 110°19'0 0.0
2017-Dec-12 09:29N 24°09' W 110°19'0 0.0
2017-Dec-12 08:59N 24°09' W 110°19'0 0.0
2017-Dec-12 08:29N 24°09' W 110°19'0 0.0
2017-Dec-12 07:59N 24°09' W 110°19'0 0.0
2017-Dec-12 07:29N 24°09' W 110°19'0 0.0
2017-Dec-12 06:56N 24°09' W 110°19'0 0.0
2017-Dec-12 06:29N 24°09' W 110°19'0 0.1
2017-Dec-12 05:56N 24°09' W 110°20'0 0.0
2017-Dec-12 05:29N 24°09' W 110°20'0 0.1
2017-Dec-12 04:59N 24°09' W 110°19'0 0.1
2017-Dec-12 04:29N 24°09' W 110°20'0 0.1
2017-Dec-12 03:59N 24°09' W 110°19'0 0.0
2017-Dec-12 03:29N 24°09' W 110°19'0 0.0
2017-Dec-12 02:59N 24°09' W 110°19'0 0.0
2017-Dec-12 02:29N 24°09' W 110°19'0 0.0
2017-Dec-12 01:59N 24°09' W 110°19'0 0.0
2017-Dec-12 01:29N 24°09' W 110°19'0 0.0
2017-Dec-12 00:59N 24°09' W 110°19'0 0.0
2017-Dec-12 00:29N 24°09' W 110°19'0 0.0
2017-Dec-11 23:56N 24°09' W 110°19'0 0.0
2017-Dec-11 23:29N 24°09' W 110°19'0 0.0
2017-Dec-11 22:59N 24°09' W 110°19'0 0.0
2017-Dec-11 22:26N 24°09' W 110°19'0 0.0
2017-Dec-11 21:59N 24°09' W 110°19'0 0.0
2017-Dec-11 21:29N 24°09' W 110°19'0 0.0
2017-Dec-11 20:59N 24°09' W 110°19'0 0.0
2017-Dec-11 20:29N 24°09' W 110°19'0 0.0
2017-Dec-11 19:59N 24°09' W 110°19'0 0.0
2017-Dec-11 19:29N 24°09' W 110°19'0 0.0
2017-Dec-11 18:59N 24°09' W 110°19'0 0.0
2017-Dec-11 18:29N 24°09' W 110°19'0 0.0
2017-Dec-11 17:59N 24°09' W 110°19'0 0.0
2017-Dec-11 17:29N 24°09' W 110°19'0 0.0
2017-Dec-11 17:00N 24°09' W 110°19'0 0.0
2017-Dec-11 16:25N 24°09' W 110°19'0 0.0
2017-Dec-11 15:53N 24°09' W 110°19'0 0.0
2017-Dec-11 15:30N 24°09' W 110°19'0 0.0
2017-Dec-11 14:59N 24°09' W 110°19'0 0.0
2017-Dec-11 14:29N 24°09' W 110°19'0 0.0
2017-Dec-11 13:59N 24°09' W 110°19'0 0.0
2017-Dec-11 13:26N 24°09' W 110°19'0 0.0
2017-Dec-11 12:59N 24°09' W 110°19'0 0.0
2017-Dec-11 12:26N 24°09' W 110°19'0 0.0
2017-Dec-11 11:59N 24°09' W 110°19'0 0.0
2017-Dec-11 11:29N 24°09' W 110°19'0 0.0
2017-Dec-11 10:59N 24°09' W 110°19'0 0.0
2017-Dec-11 10:29N 24°09' W 110°19'0 0.0
2017-Dec-11 09:59N 24°09' W 110°19'0 0.0
2017-Dec-11 09:29N 24°09' W 110°19'0 0.0
2017-Dec-11 08:59N 24°09' W 110°19'0 0.0
2017-Dec-11 08:29N 24°09' W 110°19'0 0.1
2017-Dec-11 07:59N 24°09' W 110°20'0 0.1
2017-Dec-11 07:29N 24°09' W 110°19'0 0.0
2017-Dec-11 06:59N 24°09' W 110°19'0 0.0
2017-Dec-11 06:14N 24°09' W 110°19'0 0.2
2017-Dec-11 05:59N 24°09' W 110°20'0 0.1
2017-Dec-11 05:29N 24°09' W 110°19'0 0.0
2017-Dec-11 05:00N 24°09' W 110°19'0 0.0
2017-Dec-11 04:29N 24°09' W 110°19'0 0.0
2017-Dec-11 03:59N 24°09' W 110°19'0 0.0
2017-Dec-11 03:29N 24°09' W 110°19'0 0.0
2017-Dec-11 02:59N 24°09' W 110°19'0 0.0
2017-Dec-11 02:29N 24°09' W 110°19'0 0.0
2017-Dec-11 01:59N 24°09' W 110°19'0 0.0
2017-Dec-11 01:17N 24°09' W 110°19'0 0.0
2017-Dec-11 00:58N 24°09' W 110°19'0 0.0
2017-Dec-11 00:29N 24°09' W 110°19'0 0.0
2017-Dec-10 23:59N 24°09' W 110°19'0 0.0
2017-Dec-10 23:29N 24°09' W 110°19'0 0.0
2017-Dec-10 22:59N 24°09' W 110°19'0 0.0
2017-Dec-10 22:29N 24°09' W 110°19'0 0.0
2017-Dec-10 21:59N 24°09' W 110°19'0 0.0
2017-Dec-10 21:30N 24°09' W 110°19'0 0.0
2017-Dec-10 20:59N 24°09' W 110°19'0 0.0
2017-Dec-10 20:27N 24°09' W 110°19'0 0.0
2017-Dec-10 19:59N 24°09' W 110°19'0 0.0
2017-Dec-10 19:29N 24°09' W 110°19'0 0.0
2017-Dec-10 18:59N 24°09' W 110°19'0 0.0
2017-Dec-10 18:30N 24°09' W 110°19'0 0.0
2017-Dec-10 17:59N 24°09' W 110°19'0 0.0
2017-Dec-10 17:29N 24°09' W 110°19'0 0.0
2017-Dec-10 16:59N 24°09' W 110°19'0 0.0
2017-Dec-10 16:29N 24°09' W 110°19'0 0.0
2017-Dec-10 15:47N 24°09' W 110°19'0 0.0
2017-Dec-10 15:29N 24°09' W 110°19'0 0.0
2017-Dec-10 14:58N 24°09' W 110°19'0 0.0
2017-Dec-10 14:29N 24°09' W 110°19'0 0.0
2017-Dec-10 13:59N 24°09' W 110°19'0 0.0
2017-Dec-10 13:29N 24°09' W 110°19'0 0.0
2017-Dec-10 12:59N 24°09' W 110°19'0 0.0
2017-Dec-10 12:29N 24°09' W 110°19'0 0.0
2017-Dec-10 11:59N 24°09' W 110°19'0 0.0
2017-Dec-10 11:29N 24°09' W 110°19'0 0.0
2017-Dec-10 10:59N 24°09' W 110°19'0 0.0
2017-Dec-10 10:29N 24°09' W 110°19'0 0.0
2017-Dec-10 09:59N 24°09' W 110°19'0 0.0
2017-Dec-10 09:29N 24°09' W 110°19'0 0.0
2017-Dec-10 08:59N 24°09' W 110°19'0 0.0
2017-Dec-10 08:29N 24°09' W 110°19'0 0.0
2017-Dec-10 07:59N 24°09' W 110°19'0 0.0
2017-Dec-10 07:29N 24°09' W 110°19'0 0.0
2017-Dec-10 06:59N 24°09' W 110°19'0 0.0
2017-Dec-10 06:29N 24°09' W 110°19'0 0.0
2017-Dec-10 05:59N 24°09' W 110°19'0 0.0
2017-Dec-10 05:29N 24°09' W 110°19'0 0.0
2017-Dec-10 04:59N 24°09' W 110°19'0 0.0
2017-Dec-10 04:29N 24°09' W 110°19'0 0.0
2017-Dec-10 03:57N 24°09' W 110°19'0 0.0
2017-Dec-10 03:29N 24°09' W 110°19'0 0.0
2017-Dec-10 02:59N 24°09' W 110°19'0 0.1
2017-Dec-10 02:29N 24°09' W 110°20'0 0.1
2017-Dec-10 01:59N 24°09' W 110°19'0 0.0
2017-Dec-10 01:29N 24°09' W 110°19'0 0.0
2017-Dec-10 00:59N 24°09' W 110°19'0 0.0
2017-Dec-10 00:29N 24°09' W 110°19'0 0.0
2017-Dec-09 23:59N 24°09' W 110°19'0 0.0
2017-Dec-09 23:26N 24°09' W 110°19'0 0.0
2017-Dec-09 22:59N 24°09' W 110°19'0 0.0
2017-Dec-09 22:29N 24°09' W 110°19'0 0.0
2017-Dec-09 21:56N 24°09' W 110°19'0 0.0
2017-Dec-09 21:26N 24°09' W 110°19'0 0.0
2017-Dec-09 20:47N 24°09' W 110°19'0 0.0
2017-Dec-09 20:06N 24°09' W 110°19'0 0.0
2017-Dec-09 19:59N 24°09' W 110°19'0 0.0
2017-Dec-09 19:26N 24°09' W 110°19'0 0.0
2017-Dec-09 18:57N 24°09' W 110°19'0 0.0
2017-Dec-09 18:29N 24°09' W 110°19'0 0.0
2017-Dec-09 17:59N 24°09' W 110°19'0 0.0
2017-Dec-09 17:29N 24°09' W 110°19'0 0.0
2017-Dec-09 16:59N 24°09' W 110°19'0 0.0
2017-Dec-09 16:29N 24°09' W 110°19'0 0.0
2017-Dec-09 15:59N 24°09' W 110°19'0 0.0
2017-Dec-09 15:29N 24°09' W 110°19'0 0.0
2017-Dec-09 14:58N 24°09' W 110°19'0 0.0
2017-Dec-09 14:29N 24°09' W 110°19'0 0.0
2017-Dec-09 13:59N 24°09' W 110°19'0 0.0
2017-Dec-09 13:29N 24°09' W 110°19'0 0.0
2017-Dec-09 12:59N 24°09' W 110°19'0 0.0
2017-Dec-09 12:29N 24°09' W 110°19'0 0.0
2017-Dec-09 11:59N 24°09' W 110°19'0 0.0
2017-Dec-09 11:29N 24°09' W 110°19'0 0.0
2017-Dec-09 10:59N 24°09' W 110°19'0 0.0
2017-Dec-09 10:29N 24°09' W 110°19'0 0.0
2017-Dec-09 09:59N 24°09' W 110°19'0 0.0
2017-Dec-09 09:29N 24°09' W 110°19'0 0.0
2017-Dec-09 08:59N 24°09' W 110°19'0 0.0
2017-Dec-09 08:29N 24°09' W 110°19'0 0.0
2017-Dec-09 07:59N 24°09' W 110°19'0 0.0
2017-Dec-09 07:29N 24°09' W 110°19'0 0.0
2017-Dec-09 06:56N 24°09' W 110°19'0 0.0
2017-Dec-09 06:29N 24°09' W 110°19'0 0.0
2017-Dec-09 05:59N 24°09' W 110°19'0 0.0
2017-Dec-09 05:30N 24°09' W 110°19'0 0.0
2017-Dec-09 04:59N 24°09' W 110°19'0 0.0
2017-Dec-09 04:29N 24°09' W 110°19'0 0.0
2017-Dec-09 04:00N 24°09' W 110°19'0 0.0
2017-Dec-09 03:29N 24°09' W 110°19'0 0.0
2017-Dec-09 02:59N 24°09' W 110°19'0 0.0
2017-Dec-09 02:29N 24°09' W 110°19'0 0.0
2017-Dec-09 01:56N 24°09' W 110°19'0 0.0
2017-Dec-09 01:29N 24°09' W 110°19'0 0.0
2017-Dec-09 00:59N 24°09' W 110°19'0 0.0
2017-Dec-09 00:29N 24°09' W 110°19'0 0.0
2017-Dec-08 23:59N 24°09' W 110°19'0 0.0
2017-Dec-08 23:29N 24°09' W 110°19'0 0.0
2017-Dec-08 22:56N 24°09' W 110°19'0 0.0
2017-Dec-08 22:26N 24°09' W 110°19'0 0.0
2017-Dec-08 21:59N 24°09' W 110°19'0 0.0
2017-Dec-08 21:27N 24°09' W 110°19'0 0.0
2017-Dec-08 20:59N 24°09' W 110°19'0 0.0
2017-Dec-08 20:29N 24°09' W 110°19'  
Track history (hours):
 
Tides and Currents Weather Stations Pressure Air Temp Water Temp Dewpoint Dewpoint Depression Visibility Wind Speed Wind Dir Waves Ship Positions

Dragonfly

Owner: Hawkins, Lennie D, Scappoose, OR. More information available from US FCC via Universal Licensing System and Coast Guard Vessel Documentation Center.

Last reported at 2017-Dec-18 20:29 UTC. Time now 2017-Dec-18 20:30 UTC.
Position N 24°09' W 110°20'.

Length 13 m.

Type: Sailing vessel. MMSI: 367683380.

Date/timePositionNaut miles runAvg speedWind from/ knotsBaromVisibWave heightAir tempDewpointWater temp
2017-Dec-18 20:29N 24°09' W 110°20'0 0.0
2017-Dec-18 19:59N 24°09' W 110°20'0 0.0
2017-Dec-18 19:29N 24°09' W 110°20'0 0.0
2017-Dec-18 18:58N 24°09' W 110°20'0 0.0
2017-Dec-18 18:29N 24°09' W 110°20'0 0.0
2017-Dec-18 17:56N 24°09' W 110°20'0 0.0
2017-Dec-18 17:29N 24°09' W 110°20'0 0.0
2017-Dec-18 16:56N 24°09' W 110°20'0 0.0
2017-Dec-18 16:26N 24°09' W 110°20'0 0.0
2017-Dec-18 15:59N 24°09' W 110°20'0 0.0
2017-Dec-18 15:29N 24°09' W 110°20'0 0.0
2017-Dec-18 14:59N 24°09' W 110°20'0 0.0
2017-Dec-18 14:29N 24°09' W 110°20'0 0.0
2017-Dec-18 13:59N 24°09' W 110°20'0 0.0
2017-Dec-18 13:29N 24°09' W 110°20'0 0.0
2017-Dec-18 12:59N 24°09' W 110°20'0 0.0
2017-Dec-18 12:29N 24°09' W 110°20'0 0.0
2017-Dec-18 11:59N 24°09' W 110°20'0 0.0
2017-Dec-18 11:29N 24°09' W 110°20'0 0.0
2017-Dec-18 10:59N 24°09' W 110°20'0 0.0
2017-Dec-18 10:29N 24°09' W 110°20'0 0.0
2017-Dec-18 09:59N 24°09' W 110°20'0 0.0
2017-Dec-18 09:29N 24°09' W 110°20'0 0.0
2017-Dec-18 08:59N 24°09' W 110°20'0 0.0
2017-Dec-18 08:29N 24°09' W 110°20'0 0.0
2017-Dec-18 07:59N 24°09' W 110°20'0 0.1
2017-Dec-18 07:29N 24°09' W 110°19'0 0.1
2017-Dec-18 06:59N 24°09' W 110°20'0 0.0
2017-Dec-18 06:29N 24°09' W 110°20'0 0.0
2017-Dec-18 05:59N 24°09' W 110°20'0 0.0
2017-Dec-18 05:29N 24°09' W 110°20'0 0.0
2017-Dec-18 04:56N 24°09' W 110°20'0 0.0
2017-Dec-18 04:29N 24°09' W 110°20'0 0.0
2017-Dec-18 03:59N 24°09' W 110°20'0 0.0
2017-Dec-18 03:29N 24°09' W 110°20'0 0.0
2017-Dec-18 02:59N 24°09' W 110°20'0 0.0
2017-Dec-18 02:29N 24°09' W 110°20'0 0.0
2017-Dec-18 01:59N 24°09' W 110°20'0 0.0
2017-Dec-18 01:29N 24°09' W 110°20'0 0.0
2017-Dec-18 00:59N 24°09' W 110°20'0 0.0
2017-Dec-18 00:29N 24°09' W 110°20'0 0.0
2017-Dec-17 23:59N 24°09' W 110°20'0 0.0
2017-Dec-17 23:29N 24°09' W 110°20'0 0.0
2017-Dec-17 22:59N 24°09' W 110°20'0 0.0
2017-Dec-17 22:29N 24°09' W 110°20'0 0.0
2017-Dec-17 21:59N 24°09' W 110°20'0 0.0
2017-Dec-17 21:29N 24°09' W 110°20'0 0.0
2017-Dec-17 20:59N 24°09' W 110°20'1 1.9
2017-Dec-17 20:29N 24°10' W 110°19'2 3.9
2017-Dec-17 20:00N 24°12' W 110°18'2 4.6
2017-Dec-17 19:30N 24°14' W 110°20'  
2017-Dec-13 16:50N 24°16' W 110°21'2 6.2
2017-Dec-13 16:29N 24°14' W 110°20'3 5.5
2017-Dec-13 16:00N 24°12' W 110°18'3 4.9
2017-Dec-13 15:29N 24°09' W 110°19'0 0.1
2017-Dec-13 14:59N 24°09' W 110°20'0 0.1
2017-Dec-13 14:29N 24°09' W 110°19'0 0.0
2017-Dec-13 13:59N 24°09' W 110°19'0 0.0
2017-Dec-13 13:29N 24°09' W 110°19'0 0.0
2017-Dec-13 12:59N 24°09' W 110°19'0 0.0
2017-Dec-13 12:29N 24°09' W 110°19'0 0.0
2017-Dec-13 11:59N 24°09' W 110°19'0 0.0
2017-Dec-13 11:29N 24°09' W 110°19'0 0.0
2017-Dec-13 10:59N 24°09' W 110°19'0 0.1
2017-Dec-13 10:29N 24°09' W 110°20'0 0.1
2017-Dec-13 09:59N 24°09' W 110°19'0 0.0
2017-Dec-13 09:29N 24°09' W 110°19'0 0.0
2017-Dec-13 08:59N 24°09' W 110°19'0 0.0
2017-Dec-13 08:29N 24°09' W 110°19'0 0.0
2017-Dec-13 07:59N 24°09' W 110°19'0 0.0
2017-Dec-13 07:29N 24°09' W 110°19'0 0.0
2017-Dec-13 06:59N 24°09' W 110°19'0 0.0
2017-Dec-13 06:29N 24°09' W 110°19'0 0.0
2017-Dec-13 05:59N 24°09' W 110°19'0 0.0
2017-Dec-13 05:29N 24°09' W 110°19'0 0.0
2017-Dec-13 04:59N 24°09' W 110°19'0 0.0
2017-Dec-13 04:29N 24°09' W 110°19'0 0.0
2017-Dec-13 03:59N 24°09' W 110°19'0 0.0
2017-Dec-13 03:29N 24°09' W 110°19'0 0.0
2017-Dec-13 02:59N 24°09' W 110°19'0 0.1
2017-Dec-13 02:29N 24°09' W 110°20'0 0.1
2017-Dec-13 01:59N 24°09' W 110°19'0 0.1
2017-Dec-13 01:29N 24°09' W 110°20'0 0.1
2017-Dec-13 00:56N 24°09' W 110°19'0 0.0
2017-Dec-13 00:30N 24°09' W 110°19'0 0.0
2017-Dec-12 23:59N 24°09' W 110°19'0 0.0
2017-Dec-12 23:29N 24°09' W 110°19'0 0.0
2017-Dec-12 22:59N 24°09' W 110°19'0 0.0
2017-Dec-12 22:26N 24°09' W 110°19'0 0.0
2017-Dec-12 21:59N 24°09' W 110°19'0 0.0
2017-Dec-12 21:30N 24°09' W 110°19'0 0.0
2017-Dec-12 20:57N 24°09' W 110°19'0 0.0
2017-Dec-12 20:29N 24°09' W 110°19'0 0.0
2017-Dec-12 19:59N 24°09' W 110°19'0 0.0
2017-Dec-12 19:27N 24°09' W 110°19'0 0.0
2017-Dec-12 18:59N 24°09' W 110°19'0 0.0
2017-Dec-12 18:26N 24°09' W 110°19'0 0.0
2017-Dec-12 17:57N 24°09' W 110°19'0 0.0
2017-Dec-12 17:26N 24°09' W 110°19'0 0.0
2017-Dec-12 16:59N 24°09' W 110°19'0 0.0
2017-Dec-12 16:29N 24°09' W 110°19'0 0.0
2017-Dec-12 15:50N 24°09' W 110°19'0 0.0
2017-Dec-12 15:29N 24°09' W 110°19'0 0.0
2017-Dec-12 14:59N 24°09' W 110°19'0 0.0
2017-Dec-12 14:29N 24°09' W 110°19'0 0.0
2017-Dec-12 13:59N 24°09' W 110°19'0 0.0
2017-Dec-12 13:29N 24°09' W 110°19'0 0.0
2017-Dec-12 12:59N 24°09' W 110°19'0 0.0
2017-Dec-12 12:29N 24°09' W 110°19'0 0.0
2017-Dec-12 11:59N 24°09' W 110°19'0 0.0
2017-Dec-12 11:29N 24°09' W 110°19'0 0.0
2017-Dec-12 10:59N 24°09' W 110°19'0 0.0
2017-Dec-12 10:26N 24°09' W 110°19'0 0.0
2017-Dec-12 09:59N 24°09' W 110°19'0 0.0
2017-Dec-12 09:29N 24°09' W 110°19'0 0.0
2017-Dec-12 08:59N 24°09' W 110°19'0 0.0
2017-Dec-12 08:29N 24°09' W 110°19'0 0.0
2017-Dec-12 07:59N 24°09' W 110°19'0 0.0
2017-Dec-12 07:29N 24°09' W 110°19'0 0.0
2017-Dec-12 06:56N 24°09' W 110°19'0 0.0
2017-Dec-12 06:29N 24°09' W 110°19'0 0.1
2017-Dec-12 05:56N 24°09' W 110°20'0 0.0
2017-Dec-12 05:29N 24°09' W 110°20'0 0.1
2017-Dec-12 04:59N 24°09' W 110°19'0 0.1
2017-Dec-12 04:29N 24°09' W 110°20'0 0.1
2017-Dec-12 03:59N 24°09' W 110°19'0 0.0
2017-Dec-12 03:29N 24°09' W 110°19'0 0.0
2017-Dec-12 02:59N 24°09' W 110°19'0 0.0
2017-Dec-12 02:29N 24°09' W 110°19'0 0.0
2017-Dec-12 01:59N 24°09' W 110°19'0 0.0
2017-Dec-12 01:29N 24°09' W 110°19'0 0.0
2017-Dec-12 00:59N 24°09' W 110°19'0 0.0
2017-Dec-12 00:29N 24°09' W 110°19'0 0.0
2017-Dec-11 23:56N 24°09' W 110°19'0 0.0
2017-Dec-11 23:29N 24°09' W 110°19'0 0.0
2017-Dec-11 22:59N 24°09' W 110°19'0 0.0
2017-Dec-11 22:26N 24°09' W 110°19'0 0.0
2017-Dec-11 21:59N 24°09' W 110°19'0 0.0
2017-Dec-11 21:29N 24°09' W 110°19'0 0.0
2017-Dec-11 20:59N 24°09' W 110°19'0 0.0
2017-Dec-11 20:29N 24°09' W 110°19'0 0.0
2017-Dec-11 19:59N 24°09' W 110°19'0 0.0
2017-Dec-11 19:29N 24°09' W 110°19'0 0.0
2017-Dec-11 18:59N 24°09' W 110°19'0 0.0
2017-Dec-11 18:29N 24°09' W 110°19'0 0.0
2017-Dec-11 17:59N 24°09' W 110°19'0 0.0
2017-Dec-11 17:29N 24°09' W 110°19'0 0.0
2017-Dec-11 17:00N 24°09' W 110°19'0 0.0
2017-Dec-11 16:25N 24°09' W 110°19'0 0.0
2017-Dec-11 15:53N 24°09' W 110°19'0 0.0
2017-Dec-11 15:30N 24°09' W 110°19'0 0.0
2017-Dec-11 14:59N 24°09' W 110°19'0 0.0
2017-Dec-11 14:29N 24°09' W 110°19'0 0.0
2017-Dec-11 13:59N 24°09' W 110°19'0 0.0
2017-Dec-11 13:26N 24°09' W 110°19'0 0.0
2017-Dec-11 12:59N 24°09' W 110°19'0 0.0
2017-Dec-11 12:26N 24°09' W 110°19'0 0.0
2017-Dec-11 11:59N 24°09' W 110°19'0 0.0
2017-Dec-11 11:29N 24°09' W 110°19'0 0.0
2017-Dec-11 10:59N 24°09' W 110°19'0 0.0
2017-Dec-11 10:29N 24°09' W 110°19'0 0.0
2017-Dec-11 09:59N 24°09' W 110°19'0 0.0
2017-Dec-11 09:29N 24°09' W 110°19'0 0.0
2017-Dec-11 08:59N 24°09' W 110°19'0 0.0
2017-Dec-11 08:29N 24°09' W 110°19'0 0.1
2017-Dec-11 07:59N 24°09' W 110°20'0 0.1
2017-Dec-11 07:29N 24°09' W 110°19'0 0.0
2017-Dec-11 06:59N 24°09' W 110°19'0 0.0
2017-Dec-11 06:14N 24°09' W 110°19'0 0.2
2017-Dec-11 05:59N 24°09' W 110°20'0 0.1
2017-Dec-11 05:29N 24°09' W 110°19'0 0.0
2017-Dec-11 05:00N 24°09' W 110°19'0 0.0
2017-Dec-11 04:29N 24°09' W 110°19'0 0.0
2017-Dec-11 03:59N 24°09' W 110°19'0 0.0
2017-Dec-11 03:29N 24°09' W 110°19'0 0.0
2017-Dec-11 02:59N 24°09' W 110°19'0 0.0
2017-Dec-11 02:29N 24°09' W 110°19'0 0.0
2017-Dec-11 01:59N 24°09' W 110°19'0 0.0
2017-Dec-11 01:17N 24°09' W 110°19'0 0.0
2017-Dec-11 00:58N 24°09' W 110°19'0 0.0
2017-Dec-11 00:29N 24°09' W 110°19'0 0.0
2017-Dec-10 23:59N 24°09' W 110°19'0 0.0
2017-Dec-10 23:29N 24°09' W 110°19'0 0.0
2017-Dec-10 22:59N 24°09' W 110°19'0 0.0
2017-Dec-10 22:29N 24°09' W 110°19'0 0.0
2017-Dec-10 21:59N 24°09' W 110°19'0 0.0
2017-Dec-10 21:30N 24°09' W 110°19'0 0.0
2017-Dec-10 20:59N 24°09' W 110°19'0 0.0
2017-Dec-10 20:27N 24°09' W 110°19'0 0.0
2017-Dec-10 19:59N 24°09' W 110°19'0 0.0
2017-Dec-10 19:29N 24°09' W 110°19'0 0.0
2017-Dec-10 18:59N 24°09' W 110°19'0 0.0
2017-Dec-10 18:30N 24°09' W 110°19'0 0.0
2017-Dec-10 17:59N 24°09' W 110°19'0 0.0
2017-Dec-10 17:29N 24°09' W 110°19'0 0.0
2017-Dec-10 16:59N 24°09' W 110°19'0 0.0
2017-Dec-10 16:29N 24°09' W 110°19'0 0.0
2017-Dec-10 15:47N 24°09' W 110°19'0 0.0
2017-Dec-10 15:29N 24°09' W 110°19'0 0.0
2017-Dec-10 14:58N 24°09' W 110°19'0 0.0
2017-Dec-10 14:29N 24°09' W 110°19'0 0.0
2017-Dec-10 13:59N 24°09' W 110°19'0 0.0
2017-Dec-10 13:29N 24°09' W 110°19'0 0.0
2017-Dec-10 12:59N 24°09' W 110°19'0 0.0
2017-Dec-10 12:29N 24°09' W 110°19'0 0.0
2017-Dec-10 11:59N 24°09' W 110°19'0 0.0
2017-Dec-10 11:29N 24°09' W 110°19'0 0.0
2017-Dec-10 10:59N 24°09' W 110°19'0 0.0
2017-Dec-10 10:29N 24°09' W 110°19'0 0.0
2017-Dec-10 09:59N 24°09' W 110°19'0 0.0
2017-Dec-10 09:29N 24°09' W 110°19'0 0.0
2017-Dec-10 08:59N 24°09' W 110°19'0 0.0
2017-Dec-10 08:29N 24°09' W 110°19'0 0.0
2017-Dec-10 07:59N 24°09' W 110°19'0 0.0
2017-Dec-10 07:29N 24°09' W 110°19'0 0.0
2017-Dec-10 06:59N 24°09' W 110°19'0 0.0
2017-Dec-10 06:29N 24°09' W 110°19'0 0.0
2017-Dec-10 05:59N 24°09' W 110°19'0 0.0
2017-Dec-10 05:29N 24°09' W 110°19'0 0.0
2017-Dec-10 04:59N 24°09' W 110°19'0 0.0
2017-Dec-10 04:29N 24°09' W 110°19'0 0.0
2017-Dec-10 03:57N 24°09' W 110°19'0 0.0
2017-Dec-10 03:29N 24°09' W 110°19'0 0.0
2017-Dec-10 02:59N 24°09' W 110°19'0 0.1
2017-Dec-10 02:29N 24°09' W 110°20'0 0.1
2017-Dec-10 01:59N 24°09' W 110°19'0 0.0
2017-Dec-10 01:29N 24°09' W 110°19'0 0.0
2017-Dec-10 00:59N 24°09' W 110°19'0 0.0
2017-Dec-10 00:29N 24°09' W 110°19'0 0.0
2017-Dec-09 23:59N 24°09' W 110°19'0 0.0
2017-Dec-09 23:26N 24°09' W 110°19'0 0.0
2017-Dec-09 22:59N 24°09' W 110°19'0 0.0
2017-Dec-09 22:29N 24°09' W 110°19'0 0.0
2017-Dec-09 21:56N 24°09' W 110°19'0 0.0
2017-Dec-09 21:26N 24°09' W 110°19'0 0.0
2017-Dec-09 20:47N 24°09' W 110°19'0 0.0
2017-Dec-09 20:06N 24°09' W 110°19'0 0.0
2017-Dec-09 19:59N 24°09' W 110°19'0 0.0
2017-Dec-09 19:26N 24°09' W 110°19'0 0.0
2017-Dec-09 18:57N 24°09' W 110°19'0 0.0
2017-Dec-09 18:29N 24°09' W 110°19'0 0.0
2017-Dec-09 17:59N 24°09' W 110°19'0 0.0
2017-Dec-09 17:29N 24°09' W 110°19'0 0.0
2017-Dec-09 16:59N 24°09' W 110°19'0 0.0
2017-Dec-09 16:29N 24°09' W 110°19'0 0.0
2017-Dec-09 15:59N 24°09' W 110°19'0 0.0
2017-Dec-09 15:29N 24°09' W 110°19'0 0.0
2017-Dec-09 14:58N 24°09' W 110°19'0 0.0
2017-Dec-09 14:29N 24°09' W 110°19'0 0.0
2017-Dec-09 13:59N 24°09' W 110°19'0 0.0
2017-Dec-09 13:29N 24°09' W 110°19'0 0.0
2017-Dec-09 12:59N 24°09' W 110°19'0 0.0
2017-Dec-09 12:29N 24°09' W 110°19'0 0.0
2017-Dec-09 11:59N 24°09' W 110°19'0 0.0
2017-Dec-09 11:29N 24°09' W 110°19'0 0.0
2017-Dec-09 10:59N 24°09' W 110°19'0 0.0
2017-Dec-09 10:29N 24°09' W 110°19'0 0.0
2017-Dec-09 09:59N 24°09' W 110°19'0 0.0
2017-Dec-09 09:29N 24°09' W 110°19'0 0.0
2017-Dec-09 08:59N 24°09' W 110°19'0 0.0
2017-Dec-09 08:29N 24°09' W 110°19'0 0.0
2017-Dec-09 07:59N 24°09' W 110°19'0 0.0
2017-Dec-09 07:29N 24°09' W 110°19'0 0.0
2017-Dec-09 06:56N 24°09' W 110°19'0 0.0
2017-Dec-09 06:29N 24°09' W 110°19'0 0.0
2017-Dec-09 05:59N 24°09' W 110°19'0 0.0
2017-Dec-09 05:30N 24°09' W 110°19'0 0.0
2017-Dec-09 04:59N 24°09' W 110°19'0 0.0
2017-Dec-09 04:29N 24°09' W 110°19'0 0.0
2017-Dec-09 04:00N 24°09' W 110°19'0 0.0
2017-Dec-09 03:29N 24°09' W 110°19'0 0.0
2017-Dec-09 02:59N 24°09' W 110°19'0 0.0
2017-Dec-09 02:29N 24°09' W 110°19'0 0.0
2017-Dec-09 01:56N 24°09' W 110°19'0 0.0
2017-Dec-09 01:29N 24°09' W 110°19'0 0.0
2017-Dec-09 00:59N 24°09' W 110°19'0 0.0
2017-Dec-09 00:29N 24°09' W 110°19'0 0.0
2017-Dec-08 23:59N 24°09' W 110°19'0 0.0
2017-Dec-08 23:29N 24°09' W 110°19'0 0.0
2017-Dec-08 22:56N 24°09' W 110°19'0 0.0
2017-Dec-08 22:26N 24°09' W 110°19'0 0.0
2017-Dec-08 21:59N 24°09' W 110°19'0 0.0
2017-Dec-08 21:27N 24°09' W 110°19'0 0.0
2017-Dec-08 20:59N 24°09' W 110°19'0 0.0
2017-Dec-08 20:29N 24°09' W 110°19'  

Dump ship's entire track history